Time;durP1;ratioP1;P1;durP2;ratioP2;P2;SDS_P1;SDS_P2;PMS_P1;PMS_P2;Temp;Humidity;BMP_temperature;BMP_pressure;BME280_temperature;BME280_humidity;BME280_pressure;Samples;Min_cycle;Max_cycle;Signal;HPM_P1;HPM_P2
2023/01/11 00:02:22;;;;;;;11.20;8.20;;;;;;;-3.44;0.00;100524.50;1742309;82;20988;-89
2023/01/11 00:08:50;;;;;;;14.85;7.70;;;;;;;-3.49;0.00;100402.02;1738792;82;20967;-90
2023/01/11 00:14:42;;;;;;;11.25;7.30;;;;;;;-3.74;0.00;99770.52;1690238;84;20955;-90
2023/01/11 00:21:17;;;;;;;12.07;7.80;;;;;;;-3.89;0.00;99355.14;1740183;82;21027;-88
2023/01/11 00:27:40;;;;;;;13.62;8.43;;;;;;;-4.22;0.00;98504.38;1691566;84;20935;-89
2023/01/11 00:33:55;;;;;;;13.88;9.23;;;;;;;-4.66;100.00;97342.64;1736993;83;20912;-89
2023/01/11 00:40:25;;;;;;;12.13;8.73;;;;;;;-5.06;100.00;96287.37;1691938;84;20986;-89
2023/01/11 00:53:38;;;;;;;15.53;11.03;;;;;;;-5.68;100.00;94551.35;1687588;85;20974;-88
2023/01/11 01:00:06;;;;;;;13.75;9.73;;;;;;;-5.90;100.00;93912.60;1687555;85;21398;-88
2023/01/11 01:06:33;;;;;;;14.55;9.95;;;;;;;-6.08;100.00;93379.81;1737252;83;20919;-88
2023/01/11 01:19:13;;;;;;;14.38;9.00;;;;;;;-5.94;100.00;93824.23;1692262;84;20963;-88
2023/01/11 01:25:40;;;;;;;14.58;9.45;;;;;;;-5.66;100.00;94639.41;1692444;85;20954;-88
2023/01/11 01:31:57;;;;;;;13.28;9.13;;;;;;;-5.42;100.00;95316.46;1736913;83;20923;-88
2023/01/11 01:38:23;;;;;;;14.60;9.10;;;;;;;-5.26;100.00;95751.75;1724579;83;20954;-89
2023/01/11 01:45:19;;;;;;;14.68;9.35;;;;;;;-5.27;100.00;95713.53;1735332;82;20950;-89
2023/01/11 01:51:54;;;;;;;16.42;10.30;;;;;;;-5.45;100.00;95181.47;1742762;82;21407;-89
2023/01/11 01:58:26;;;;;;;11.95;8.25;;;;;;;-5.46;100.00;95125.98;1695978;84;20966;-89
2023/01/11 02:04:56;;;;;;;16.57;9.35;;;;;;;-5.66;100.00;94545.34;1688778;84;20930;-88
2023/01/11 02:11:31;;;;;;;11.70;9.23;;;;;;;-5.97;100.00;93589.29;1687710;85;20919;-89
2023/01/11 02:17:25;;;;;;;13.95;9.48;;;;;;;-6.21;100.00;92889.48;1733104;82;21485;-88
2023/01/11 02:24:29;;;;;;;15.78;10.25;;;;;;;-6.40;87.32;92283.89;1739872;82;20916;-88
2023/01/11 02:31:03;;;;;;;14.55;10.63;;;;;;;-6.58;63.29;91709.52;1739865;82;20959;-88
2023/01/11 02:37:43;;;;;;;20.65;11.73;;;;;;;-6.71;46.48;91290.38;1668303;84;21058;-88
2023/01/11 02:50:57;;;;;;;19.98;11.78;;;;;;;-6.83;29.69;90899.95;1668529;84;21090;-89
2023/01/11 02:57:31;;;;;;;19.85;12.82;;;;;;;-6.88;23.92;90732.05;1668204;84;21507;-89
2023/01/11 03:04:03;;;;;;;20.62;12.47;;;;;;;-6.89;22.49;90673.84;1668365;84;20961;-89
2023/01/11 03:10:46;;;;;;;19.77;12.93;;;;;;;-6.90;21.09;90616.98;1701145;81;21006;-89
2023/01/11 03:17:37;;;;;;;16.37;10.72;;;;;;;-6.90;21.09;90611.77;1678345;85;20952;-89
2023/01/11 03:23:45;;;;;;;17.75;11.93;;;;;;;-6.89;22.49;90626.84;1612662;89;21000;-89
2023/01/11 03:34:29;;;;;;;17.07;11.15;;;;;;;-6.90;20.22;90548.31;1612694;89;21005;-89
2023/01/11 03:41:05;;;;;;;18.20;12.03;;;;;;;-6.92;17.59;90464.50;1612720;89;21442;-89
2023/01/11 03:47:22;;;;;;;15.78;10.85;;;;;;;-6.97;11.66;90307.57;1603413;89;20994;-89
2023/01/11 03:53:59;;;;;;;18.75;11.53;;;;;;;-7.03;3.46;90074.38;1661824;86;21018;-89
2023/01/11 04:00:28;;;;;;;17.00;11.33;;;;;;;-7.08;0.00;89863.10;1737708;82;20970;-89
2023/01/11 04:06:55;;;;;;;18.27;11.40;;;;;;;-7.11;0.00;89752.71;1745273;82;21502;-88
2023/01/11 04:17:08;;;;;;;;;;;;;;;-7.09;0.00;89779.11;1761382;81;21426;-89
2023/01/11 04:23:40;;;;;;;13.95;8.13;;;;;;;-7.06;0.00;89870.33;1737349;83;21447;-89
2023/01/11 04:29:31;;;;;;;12.37;7.12;;;;;;;-6.99;7.97;90076.38;1737316;83;20926;-89
2023/01/11 04:36:00;;;;;;;12.63;7.20;;;;;;;-6.95;14.28;90208.14;1722430;83;20919;-90
2023/01/11 04:42:29;;;;;;;9.10;6.75;;;;;;;-6.91;18.82;90302.80;1737336;83;20911;-89
2023/01/11 04:48:56;;;;;;;13.08;6.15;;;;;;;-6.88;23.92;90397.87;1742989;82;20923;-88
2023/01/11 04:55:23;;;;;;;11.12;6.58;;;;;;;-6.83;29.69;90518.79;1742853;82;20995;-90
2023/01/11 05:01:50;;;;;;;10.50;6.28;;;;;;;-6.68;50.15;90944.91;1717937;83;20914;-89
2023/01/11 05:08:17;;;;;;;12.05;6.30;;;;;;;-6.58;63.29;91239.55;1736416;82;21448;-89
2023/01/11 05:18:36;;;;;;;11.00;5.60;;;;;;;-6.41;85.92;91757.92;1704156;84;20950;-90
2023/01/11 05:25:00;;;;;;;10.65;5.53;;;;;;;-6.28;100.00;92122.86;1742271;82;21434;-89
2023/01/11 05:27:32;;;;;;;10.93;5.70;;;;;;;-6.21;100.00;92330.66;1742223;82;21003;-89
2023/01/11 05:33:29;;;;;;;8.68;5.45;;;;;;;-6.12;100.00;92596.03;1739915;82;20915;-91
2023/01/11 05:36:07;;;;;;;10.60;5.65;;;;;;;-6.06;100.00;92756.01;1718451;82;20935;-90
2023/01/11 05:38:44;;;;;;;9.73;5.95;;;;;;;-6.03;100.00;92856.44;1721501;82;21018;-90
2023/01/11 05:41:20;;;;;;;13.93;6.33;;;;;;;-5.97;100.00;93009.53;1739359;82;20976;-90
2023/01/11 05:46:35;;;;;;;11.78;6.40;;;;;;;-5.91;100.00;93156.33;1742353;82;21025;-90
2023/01/11 05:49:05;;;;;;;9.13;6.12;;;;;;;-5.88;100.00;93241.08;1722082;82;20939;-90
2023/01/11 05:51:37;;;;;;;11.43;5.83;;;;;;;-5.83;100.00;93387.94;1721817;82;20987;-89
2023/01/11 05:54:12;;;;;;;12.95;6.30;;;;;;;-5.78;100.00;93510.72;1721590;82;20958;-86
2023/01/11 05:56:42;;;;;;;10.47;6.00;;;;;;;-5.74;100.00;93627.20;1742501;82;20930;-87
2023/01/11 05:59:12;;;;;;;10.43;5.78;;;;;;;-5.68;100.00;93788.72;1672764;82;20958;-87
2023/01/11 06:01:40;;;;;;;10.48;5.03;;;;;;;-5.62;100.00;93962.38;1739857;82;20927;-87
2023/01/11 06:04:13;;;;;;;11.55;6.70;;;;;;;-5.56;100.00;94157.34;1739968;82;20914;-89
2023/01/11 06:06:41;;;;;;;11.95;6.20;;;;;;;-5.49;100.00;94294.03;1719442;82;20981;-88
2023/01/11 06:09:10;;;;;;;10.30;5.78;;;;;;;-5.43;100.00;94492.52;1742130;82;20967;-88
2023/01/11 06:11:39;;;;;;;10.40;6.22;;;;;;;-5.37;100.00;94658.84;1722019;82;20942;-87
2023/01/11 06:14:12;;;;;;;9.85;5.35;;;;;;;-5.34;100.00;94735.88;1740158;82;21055;-86
2023/01/11 06:16:42;;;;;;;9.25;5.45;;;;;;;-5.29;100.00;94848.16;1737357;82;21434;-86
2023/01/11 06:19:11;;;;;;;9.70;5.60;;;;;;;-5.27;100.00;94867.33;1737437;83;20955;-88
2023/01/11 06:21:43;;;;;;;9.78;5.22;;;;;;;-5.23;100.00;95023.11;1737265;83;20931;-87
2023/01/11 06:24:14;;;;;;;10.75;5.20;;;;;;;-5.20;100.00;95094.13;1737260;83;20971;-87
2023/01/11 06:26:43;;;;;;;9.43;4.97;;;;;;;-5.15;100.00;95244.33;1737250;83;20995;-87
2023/01/11 06:29:15;;;;;;;9.88;5.10;;;;;;;-5.14;100.00;95278.30;1681836;83;21010;-87
2023/01/11 06:31:43;;;;;;;8.20;5.17;;;;;;;-5.11;100.00;95337.77;1737259;83;20930;-87
2023/01/11 06:34:13;;;;;;;9.15;5.15;;;;;;;-5.07;100.00;95430.92;1737131;83;20922;-88
2023/01/11 06:40:41;;;;;;;10.20;5.03;;;;;;;-4.96;100.00;95746.97;1736173;82;20938;-87
2023/01/11 06:47:16;;;;;;;12.03;5.28;;;;;;;-4.80;100.00;96162.20;1714997;83;20919;-87
2023/01/11 06:49:45;;;;;;;12.13;5.95;;;;;;;-4.75;100.00;96316.86;1716077;83;20970;-87
2023/01/11 06:52:14;;;;;;;8.00;5.10;;;;;;;-4.70;100.00;96427.31;1737241;83;20995;-87
2023/01/11 06:54:46;;;;;;;7.45;5.47;;;;;;;-4.65;100.00;96560.84;1716763;83;20971;-87
2023/01/11 06:57:17;;;;;;;12.37;5.83;;;;;;;-4.61;100.00;96683.48;1717252;82;21446;-87
2023/01/11 07:03:44;;;;;;;9.45;4.97;;;;;;;-4.51;100.00;96944.55;1739855;82;21438;-87
2023/01/11 07:10:14;;;;;;;7.83;4.83;;;;;;;-4.34;0.00;97367.84;1734397;83;21391;-87
2023/01/11 07:16:31;;;;;;;11.70;4.70;;;;;;;-4.25;0.00;97628.79;1728003;81;20987;-88
2023/01/11 07:23:00;;;;;;;7.47;4.58;;;;;;;-4.13;0.00;97937.19;1736258;82;20963;-88
2023/01/11 07:25:34;;;;;;;10.68;5.17;;;;;;;-4.09;0.00;98055.41;1742294;82;20970;-89
2023/01/11 07:28:07;;;;;;;9.63;4.53;;;;;;;-4.02;0.00;98231.66;1742213;82;20955;-88
2023/01/11 07:30:40;;;;;;;11.05;4.53;;;;;;;-3.95;0.00;98428.88;1742344;82;20990;-87
2023/01/11 07:33:11;;;;;;;8.53;4.47;;;;;;;-3.88;0.00;98582.40;1742341;82;21371;-87
2023/01/11 07:35:39;;;;;;;4.72;3.70;;;;;;;-3.85;0.00;98666.75;1742323;82;21018;-87
2023/01/11 07:38:09;;;;;;;7.75;3.98;;;;;;;-3.80;0.00;98788.02;1742313;82;20942;-86
2023/01/11 07:40:42;;;;;;;8.25;4.53;;;;;;;-3.75;0.00;98912.94;1739838;82;20926;-90
2023/01/11 07:43:23;;;;;;;6.55;4.10;;;;;;;-3.71;0.00;98986.91;1739751;82;20950;-90
2023/01/11 07:45:48;;;;;;;7.90;4.60;;;;;;;-3.64;0.00;99127.31;1732656;82;20951;-90
2023/01/11 07:48:25;;;;;;;7.50;3.87;;;;;;;-3.63;0.00;99162.86;1706715;82;21400;-89
2023/01/11 07:50:55;;;;;;;7.70;3.98;;;;;;;-3.61;0.00;99210.41;1740095;82;20926;-88
2023/01/11 07:53:25;;;;;;;8.48;4.40;;;;;;;-3.59;0.00;99256.22;1740066;82;20923;-89
2023/01/11 07:55:56;;;;;;;7.80;4.65;;;;;;;-3.59;0.00;99245.78;1739914;82;20911;-89
2023/01/11 07:58:25;;;;;;;8.43;3.60;;;;;;;-3.57;0.00;99287.42;1719725;82;20999;-90
2023/01/11 08:00:57;;;;;;;8.40;4.12;;;;;;;-3.52;0.00;99421.22;1739506;82;20990;-91
2023/01/11 08:03:26;;;;;;;6.83;4.12;;;;;;;-3.49;0.00;99462.07;1716346;82;20979;-88
2023/01/11 08:05:56;;;;;;;7.10;4.28;;;;;;;-3.45;0.00;99553.83;1742302;82;20931;-89
2023/01/11 08:08:29;;;;;;;6.42;4.12;;;;;;;-3.42;0.00;99620.38;1742325;82;20926;-88
2023/01/11 08:16:34;;;;;;;8.38;6.50;;;;;;;-3.35;0.00;99777.08;1740733;82;20955;-91
2023/01/11 08:19:04;;;;;;;7.83;4.35;;;;;;;-3.32;0.00;99843.05;1737208;83;20950;-88
2023/01/11 08:21:34;;;;;;;9.85;4.87;;;;;;;-3.28;0.00;99970.77;1737320;83;21018;-90
2023/01/11 08:24:04;;;;;;;7.08;4.53;;;;;;;-3.28;0.00;99965.55;1713114;83;21399;-88
2023/01/11 08:26:38;;;;;;;8.30;4.85;;;;;;;-3.27;0.00;99953.64;1737312;83;20939;-87
2023/01/11 08:29:07;;;;;;;8.08;4.20;;;;;;;-3.29;0.00;99924.17;1737228;83;20948;-87
2023/01/11 08:31:39;;;;;;;7.30;4.78;;;;;;;-3.29;0.00;99939.83;1737182;83;20923;-87
2023/01/11 08:34:06;;;;;;;7.62;4.55;;;;;;;-3.27;0.00;99969.30;1716709;83;20955;-87
2023/01/11 08:36:34;;;;;;;8.45;4.28;;;;;;;-3.24;0.00;100034.80;1737280;83;20982;-90
2023/01/11 08:39:04;;;;;;;7.08;4.20;;;;;;;-3.20;0.00;100119.97;1737271;83;20961;-88
2023/01/11 08:41:32;;;;;;;8.85;4.60;;;;;;;-3.17;0.00;100185.08;1737208;83;20967;-87
2023/01/11 08:44:00;;;;;;;8.53;4.22;;;;;;;-3.16;0.00;100240.23;1737284;83;20990;-87
2023/01/11 08:46:32;;;;;;;5.80;4.00;;;;;;;-3.11;0.00;100335.02;1736872;83;20962;-88
2023/01/11 08:49:01;;;;;;;4.72;3.58;;;;;;;-3.08;0.00;100404.30;1736833;82;21001;-91
2023/01/11 08:51:30;;;;;;;6.90;4.17;;;;;;;-3.05;0.00;100462.16;1736648;82;20939;-90
2023/01/11 08:53:58;;;;;;;7.95;4.17;;;;;;;-2.99;0.00;100601.37;1704247;83;20990;-90
2023/01/11 08:56:27;;;;;;;8.15;4.42;;;;;;;-2.90;0.00;100811.79;1741177;82;21006;-88
2023/01/11 08:58:55;;;;;;;5.70;3.80;;;;;;;-2.89;0.00;100831.53;1716670;83;20931;-89
2023/01/11 09:01:24;;;;;;;9.63;4.87;;;;;;;-2.86;0.00;100889.62;1737180;83;20922;-88
2023/01/11 09:03:53;;;;;;;9.58;5.42;;;;;;;-2.82;0.00;100982.81;1737262;83;20927;-88
2023/01/11 09:06:22;;;;;;;8.05;4.47;;;;;;;-2.76;0.00;101111.30;1737011;83;20934;-90
2023/01/11 09:08:51;;;;;;;18.55;11.48;;;;;;;-2.72;0.00;101204.21;1729201;83;20974;-88
2023/01/11 09:14:06;;;;;;;8.93;4.95;;;;;;;-2.54;0.00;101630.58;1737295;82;20934;-87
2023/01/11 09:16:38;;;;;;;6.12;3.40;;;;;;;-2.49;0.00;101682.82;1737725;82;20974;-85
2023/01/11 09:19:10;;;;;;;7.22;3.75;;;;;;;-2.46;0.00;101749.02;1739883;82;20911;-86
2023/01/11 09:21:39;;;;;;;10.58;3.67;;;;;;;-2.39;0.00;101923.72;1739812;82;20963;-86
2023/01/11 09:24:08;;;;;;;9.38;3.75;;;;;;;-2.32;0.00;102152.15;1717479;82;20950;-86
2023/01/11 09:26:37;;;;;;;8.30;3.50;;;;;;;-2.30;0.00;102074.61;1742243;82;21011;-86
2023/01/11 09:29:05;;;;;;;6.62;4.05;;;;;;;-2.28;0.00;102124.09;1742133;82;20923;-85
2023/01/11 09:31:35;;;;;;;5.78;3.40;;;;;;;-2.19;0.00;102293.42;1721777;82;21003;-86
2023/01/11 09:34:05;;;;;;;6.28;3.45;;;;;;;-2.16;0.00;102358.39;1742463;82;20998;-86
2023/01/11 09:36:38;;;;;;;7.15;3.20;;;;;;;-2.15;0.00;102339.70;1721939;82;21033;-85
2023/01/11 09:39:11;;;;;;;7.22;4.00;;;;;;;-2.16;0.00;102332.31;1742223;82;20954;-86
2023/01/11 09:42:00;;;;;;;7.50;3.42;;;;;;;-2.18;0.00;102301.36;1721844;82;21081;-86
2023/01/11 09:44:31;;;;;;;8.53;3.70;;;;;;;-2.15;0.00;102378.84;1742255;82;20983;-86
2023/01/11 09:47:04;;;;;;;7.62;3.58;;;;;;;-2.15;0.00;102305.84;1742134;82;20983;-86
2023/01/11 09:49:39;;;;;;;5.47;3.15;;;;;;;-2.15;0.00;102308.42;1738064;82;21026;-84
2023/01/11 09:52:27;;;;;;;5.10;3.50;;;;;;;-2.13;0.00;102363.23;1742354;82;21002;-86
2023/01/11 09:54:56;;;;;;;5.92;3.62;;;;;;;-2.15;0.00;102318.85;1742199;82;21073;-86
2023/01/11 09:57:48;;;;;;;6.97;3.40;;;;;;;-2.13;0.00;102394.53;1742181;82;21037;-87
2023/01/11 10:00:24;;;;;;;12.60;4.10;;;;;;;-2.09;0.00;102497.66;1684755;85;21001;-87
2023/01/11 10:03:26;;;;;;;6.60;3.50;;;;;;;-2.12;0.00;102422.21;1677824;85;20978;-87
2023/01/11 10:06:18;;;;;;;6.78;3.05;;;;;;;-2.09;0.00;102513.30;1677936;85;20974;-88
2023/01/11 10:08:54;;;;;;;6.22;3.08;;;;;;;-2.07;0.00;102527.78;1677333;85;21022;-90
2023/01/11 10:12:08;;;;;;;6.22;2.92;;;;;;;-2.02;0.00;102635.77;1677800;85;21065;-88
2023/01/11 10:15:07;;;;;;;8.63;4.35;;;;;;;-1.98;0.00;102680.70;1677933;85;20998;-88
2023/01/11 10:18:08;;;;;;;6.53;3.52;;;;;;;-1.92;0.00;102808.47;1668600;85;20975;-88
2023/01/11 10:20:42;;;;;;;6.50;3.42;;;;;;;-1.89;0.00;102850.54;1690982;84;20922;-89
2023/01/11 10:23:27;;;;;;;4.40;3.20;;;;;;;-1.87;3.36;102924.67;1689802;84;20993;-87
2023/01/11 10:26:01;;;;;;;6.22;3.40;;;;;;;-1.89;0.00;102845.31;1715004;84;20914;-87
2023/01/11 10:28:45;;;;;;;6.25;3.52;;;;;;;-1.89;0.00;102840.11;1714926;84;20977;-87
2023/01/11 10:31:28;;;;;;;9.75;3.90;;;;;;;-1.86;4.83;102895.48;1661032;86;20962;-88
2023/01/11 10:37:09;;;;;;;8.28;3.58;;;;;;;-1.79;15.28;103043.69;1677334;83;20975;-89
2023/01/11 10:42:28;;;;;;;8.65;3.55;;;;;;;-1.67;34.21;103290.25;1693762;84;21438;-89
2023/01/11 10:45:21;;;;;;;7.50;3.37;;;;;;;-1.64;38.82;103336.54;1693517;84;21042;-91
2023/01/11 10:48:05;;;;;;;5.90;3.77;;;;;;;-1.66;35.70;103276.78;1693304;84;21010;-89
2023/01/11 10:50:46;;;;;;;6.30;3.25;;;;;;;-1.60;46.11;103412.84;1688326;84;21037;-90
2023/01/11 10:53:22;;;;;;;8.68;3.15;;;;;;;-1.57;50.45;103458.70;1689170;84;20995;-90
2023/01/11 10:56:38;;;;;;;6.17;3.70;;;;;;;-1.52;57.73;103543.30;1676824;84;21022;-90
2023/01/11 10:59:17;;;;;;;5.55;2.90;;;;;;;-1.48;63.40;103611.40;1735165;82;21022;-90
2023/01/11 11:06:09;;;;;;;5.42;2.72;;;;;;;-1.43;72.32;103712.53;1689151;84;20928;-90
2023/01/11 11:08:54;;;;;;;6.95;2.72;;;;;;;-1.45;69.61;103652.69;1676299;85;20978;-90
2023/01/11 11:11:41;;;;;;;5.67;2.80;;;;;;;-1.39;78.53;103753.38;1688576;84;20978;-90
2023/01/11 11:21:38;;;;;;;4.97;3.17;;;;;;;-1.42;73.78;103666.87;1737351;83;20930;-90
2023/01/11 11:27:21;;;;;;;5.97;3.20;;;;;;;-1.44;70.83;103627.91;1721420;82;20958;-91
2023/01/11 11:33:47;;;;;;;8.23;3.60;;;;;;;-1.61;44.64;103290.92;1667476;86;20946;-90
2023/01/11 11:36:16;;;;;;;9.13;3.27;;;;;;;-1.68;32.60;103106.58;1644276;86;21023;-90
2023/01/11 11:42:20;;;;;;;8.08;4.15;;;;;;;-1.71;28.39;103049.63;1651560;87;21505;-91
2023/01/11 11:45:20;;;;;;;4.87;3.47;;;;;;;-1.81;11.61;102753.03;1682614;85;21066;-91
2023/01/11 11:48:09;;;;;;;7.45;4.35;;;;;;;-1.72;26.92;102985.30;1682280;85;21006;-91
2023/01/11 11:50:45;;;;;;;10.45;4.58;;;;;;;-1.73;25.70;102963.11;1682723;85;20983;-90
2023/01/11 11:53:18;;;;;;;7.75;3.62;;;;;;;-1.74;24.21;102924.32;1682736;85;21010;-90
2023/01/11 11:55:49;;;;;;;10.13;3.83;;;;;;;-1.76;19.60;102851.42;1666689;85;20995;-90
2023/01/11 12:02:23;;;;;;;8.43;3.83;;;;;;;-1.87;3.36;102622.34;1687787;83;21007;-90
2023/01/11 12:04:55;;;;;;;7.97;3.97;;;;;;;-1.89;0.00;102558.63;1682941;85;20965;-90
2023/01/11 12:07:31;;;;;;;7.60;3.30;;;;;;;-1.86;4.83;102650.50;1686590;85;20975;-90
2023/01/11 12:10:18;;;;;;;6.87;3.42;;;;;;;-1.86;4.83;102640.09;1682999;85;20987;-90
2023/01/11 12:16:49;;;;;;;7.00;3.60;;;;;;;-1.94;0.00;102423.48;1682945;83;20992;-89
2023/01/11 12:19:34;;;;;;;6.72;4.15;;;;;;;-1.96;0.00;102377.75;1707533;83;20965;-89
2023/01/11 12:22:18;;;;;;;8.75;3.62;;;;;;;-1.95;0.00;102390.45;1729046;83;20965;-88
2023/01/11 12:29:27;;;;;;;5.83;3.33;;;;;;;-1.88;0.64;102534.72;1727828;83;21482;-88
2023/01/11 12:36:20;;;;;;;7.92;4.10;;;;;;;-1.92;0.00;102454.02;1727186;83;20966;-86
2023/01/11 12:39:25;;;;;;;10.05;3.83;;;;;;;-1.95;0.00;102400.88;1727127;83;20978;-87
2023/01/11 12:42:13;;;;;;;6.65;3.50;;;;;;;-1.93;0.00;102441.38;1722683;82;20977;-87
2023/01/11 12:45:10;;;;;;;8.13;3.62;;;;;;;-1.93;0.00;102430.95;1669140;84;21005;-87
2023/01/11 12:48:32;;;;;;;6.70;3.75;;;;;;;-1.94;0.00;102402.66;1660375;86;20970;-89
2023/01/11 12:51:11;;;;;;;12.60;4.08;;;;;;;-2.02;0.00;102221.56;1625437;88;20973;-87
2023/01/11 12:54:19;;;;;;;7.20;3.83;;;;;;;-2.07;0.00;102126.37;1625239;88;20996;-89
2023/01/11 12:57:31;;;;;;;11.70;4.53;;;;;;;-2.14;0.00;101984.77;1609036;88;21052;-88
2023/01/11 13:00:15;;;;;;;8.85;4.08;;;;;;;-2.16;0.00;101936.09;1636881;87;20982;-87
2023/01/11 13:02:48;;;;;;;6.87;4.65;;;;;;;-2.17;0.00;101891.69;1636634;87;20954;-88
2023/01/11 13:05:50;;;;;;;6.35;4.08;;;;;;;-2.16;0.00;101920.44;1632752;88;21537;-88
2023/01/11 13:08:58;;;;;;;7.65;4.00;;;;;;;-2.17;0.00;101891.69;1634075;88;20982;-90
2023/01/11 13:12:08;;;;;;;9.38;4.53;;;;;;;-2.22;0.00;101779.89;1612821;89;20994;-91
2023/01/11 13:15:29;;;;;;;7.78;4.15;;;;;;;-2.28;0.00;101647.20;1611666;89;21070;-90
2023/01/11 13:18:06;;;;;;;8.78;4.35;;;;;;;-2.30;0.00;101620.98;1608145;89;21513;-90
2023/01/11 13:20:57;;;;;;;8.55;4.00;;;;;;;-2.36;0.00;101484.02;1604078;89;21026;-91
2023/01/11 13:23:52;;;;;;;13.08;5.22;;;;;;;-2.41;0.00;101386.05;1631203;83;20983;-90
2023/01/11 13:26:38;;;;;;;9.80;4.92;;;;;;;-2.43;0.00;101320.17;1683614;84;20972;-90
2023/01/11 13:29:37;;;;;;;7.97;4.78;;;;;;;-2.46;0.00;101232.77;1707545;84;20980;-89
2023/01/11 13:32:36;;;;;;;9.03;4.72;;;;;;;-2.47;0.00;101198.72;1702707;84;21544;-88
2023/01/11 13:35:25;;;;;;;6.90;4.10;;;;;;;-2.49;0.00;101145.70;1730326;81;21017;-90
2023/01/11 13:38:20;;;;;;;9.40;4.60;;;;;;;-2.52;0.00;101073.11;1728084;81;21001;-89
2023/01/11 14:00:45;;;;;;;9.75;4.50;;;;;;;-2.48;0.00;101179.28;1595768;90;21065;-89
2023/01/11 14:03:31;;;;;;;10.08;5.12;;;;;;;-2.56;0.00;100979.84;1574411;90;21072;-90
2023/01/11 14:06:38;;;;;;;8.80;4.80;;;;;;;-2.59;0.00;100912.03;1583997;90;21063;-89
2023/01/11 14:09:30;;;;;;;9.18;4.15;;;;;;;-2.59;0.00;100885.97;1595602;90;21006;-90
2023/01/11 14:12:39;;;;;;;10.43;4.70;;;;;;;-2.59;0.00;100891.17;1595409;90;21036;-89
2023/01/11 14:15:42;;;;;;;8.73;4.70;;;;;;;-2.60;0.00;100862.08;1581322;90;21056;-89
2023/01/11 14:18:22;;;;;;;10.13;6.03;;;;;;;-2.67;0.00;100719.03;1595121;89;21058;-91
2023/01/11 14:21:21;;;;;;;11.48;5.53;;;;;;;-2.73;0.00;100575.08;1602920;89;21541;-91
2023/01/11 14:23:52;;;;;;;10.65;5.28;;;;;;;-2.70;0.00;100642.69;1573470;89;21629;-91
2023/01/11 14:27:17;;;;;;;10.95;5.45;;;;;;;-2.69;0.00;100672.48;1611183;89;21476;-88
2023/01/11 14:30:11;;;;;;;7.77;4.73;;;;;;;-2.70;0.00;100632.26;1559632;91;21015;-89
2023/01/11 14:45:17;;;;;;;;;;;;;;;;;;;;;
2023/01/11 14:48:10;;;;;;;;;;;;;;;;;;;;;
2023/01/11 14:51:01;;;;;;;9.63;4.87;;;;;;;-2.76;0.00;100485.42;1576790;91;21557;-90
2023/01/11 15:07:02;;;;;;;9.08;5.15;;;;;;;-2.76;0.00;100459.36;1570284;89;21152;-83
2023/01/11 15:13:03;;;;;;;;;;;;;;;;;;;;;
2023/01/11 15:18:40;;;;;;;;;;;;;;;;;;;;;
2023/01/11 15:21:14;;;;;;;10.15;5.58;;;;;;;-2.92;0.00;100090.00;1527759;93;21612;-86
2023/01/11 15:23:56;;;;;;;11.12;5.33;;;;;;;-2.93;0.00;100045.69;1531977;94;21507;-81
2023/01/11 15:30:46;;;;;;;10.23;5.92;;;;;;;-2.98;0.00;99927.03;1433841;97;21122;-85
2023/01/11 15:33:26;;;;;;;9.68;5.10;;;;;;;-3.03;0.00;99818.35;1425802;98;21053;-80
2023/01/11 15:40:23;;;;;;;8.93;5.28;;;;;;;-3.02;0.00;99848.27;1470589;94;21086;-85
2023/01/11 15:48:27;;;;;;;9.33;5.78;;;;;;;-2.95;0.00;99985.66;1564317;92;21005;-85
2023/01/11 15:50:28;;;;;;;11.75;5.22;;;;;;;-2.92;0.00;100054.56;1592498;87;21039;-85
2023/01/11 15:53:50;;;;;;;8.80;5.67;;;;;;;-2.89;0.00;100137.84;1640428;87;21027;-81
2023/01/11 15:57:11;;;;;;;7.92;5.28;;;;;;;-2.88;0.00;100146.09;1640481;87;21062;-80
2023/01/11 16:00:23;;;;;;;11.05;6.30;;;;;;;-2.84;0.00;100229.52;1618736;87;21011;-80
2023/01/11 16:03:54;;;;;;;;;;;;;;;;;;;;;
2023/01/11 16:06:55;;;;;;;9.08;5.42;;;;;;;-2.70;0.00;100554.06;1629478;84;21586;-80
2023/01/11 16:10:21;;;;;;;14.63;6.92;;;;;;;-2.67;0.00;100666.89;1628166;87;21028;-87
2023/01/11 16:13:12;;;;;;;14.73;6.12;;;;;;;-2.61;0.00;100770.43;1595502;90;21450;-85
2023/01/11 16:16:25;;;;;;;9.88;6.08;;;;;;;-2.62;0.00;100751.22;1523896;90;21522;-79
2023/01/11 16:26:39;;;;;;;10.70;6.17;;;;;;;-2.56;0.00;100870.38;1543790;92;21047;-80
2023/01/11 16:34:02;;;;;;;7.65;4.95;;;;;;;-2.64;0.00;100723.70;1484824;97;21500;-83
2023/01/11 16:36:50;;;;;;;;;;;;;;;;;;;;;
2023/01/11 16:39:26;;;;;;;;;;;;;;;;;;;;;
2023/01/11 16:42:06;;;;;;;;;;;;;;;;;;;;;
2023/01/11 16:45:03;;;;;;;10.03;6.00;;;;;;;-2.58;0.00;100842.55;1437836;98;21057;-80
2023/01/11 16:47:47;;;;;;;;;;;;;;;;;;;;;
2023/01/11 16:50:36;;;;;;;12.50;6.42;;;;;;;-2.52;0.00;100994.91;1460900;97;21023;-90
2023/01/11 16:53:18;;;;;;;;;;;;;;;;;;;;;
2023/01/11 16:55:46;;;;;;;12.07;6.42;;;;;;;-2.53;0.00;100987.32;1563951;90;21007;-81
2023/01/11 16:58:31;;;;;;;13.78;6.95;;;;;;;-2.54;0.00;100933.59;1561162;90;21027;-89
2023/01/11 17:01:08;;;;;;;11.35;6.87;;;;;;;-2.54;0.00;100944.02;1562643;92;21528;-88
2023/01/11 17:03:58;;;;;;;14.10;7.17;;;;;;;-2.55;0.00;100945.80;1563094;92;21014;-88
2023/01/11 17:06:59;;;;;;;11.55;6.80;;;;;;;-2.55;0.00;100935.37;1561061;90;21486;-89
2023/01/11 17:16:14;;;;;;;16.15;7.45;;;;;;;-2.59;0.00;100859.89;1620915;88;21065;-86
2023/01/11 17:22:33;;;;;;;11.75;7.10;;;;;;;-2.60;0.00;100836.02;1621851;88;20983;-87
2023/01/11 17:29:04;;;;;;;16.17;7.67;;;;;;;-2.60;0.00;100825.59;1621874;88;20991;-83
2023/01/11 17:35:42;;;;;;;12.03;6.78;;;;;;;-2.63;0.00;100774.73;1621818;88;21015;-88
2023/01/11 17:38:16;;;;;;;15.68;7.50;;;;;;;-2.62;0.00;100798.14;1600990;88;21065;-88
2023/01/11 17:40:55;;;;;;;12.60;6.65;;;;;;;-2.59;0.00;100875.53;1622986;87;21062;-89
2023/01/11 17:46:32;;;;;;;15.53;8.08;;;;;;;-2.59;0.00;100865.11;1606575;88;21493;-89
2023/01/11 17:49:11;;;;;;;;;;;;;;;-2.59;0.00;100859.89;1624917;88;21522;-89
2023/01/11 17:51:45;;;;;;;12.85;8.15;;;;;;;-2.55;0.00;100956.22;1654523;85;20409;-90
2023/01/11 17:54:22;;;;;;;13.40;7.33;;;;;;;-2.52;0.00;101031.40;1659355;85;20926;-88
2023/01/11 17:57:03;;;;;;;13.88;7.83;;;;;;;-2.53;0.00;101018.60;1679211;85;20954;-86
2023/01/11 17:59:34;;;;;;;14.45;7.58;;;;;;;-2.61;0.00;100822.55;1646427;86;21048;-87
2023/01/11 18:02:20;;;;;;;11.93;7.60;;;;;;;-2.60;0.00;100851.66;1678987;85;20910;-88
2023/01/11 18:04:43;;;;;;;15.63;8.28;;;;;;;-2.62;0.00;100798.14;1676058;85;20970;-87
2023/01/11 18:07:24;;;;;;;16.10;8.15;;;;;;;-2.68;0.00;100639.19;1702157;83;21515;-89
2023/01/11 18:09:58;;;;;;;12.00;7.47;;;;;;;-2.72;0.00;100557.50;1715977;81;21435;-87
2023/01/11 18:12:35;;;;;;;13.30;8.35;;;;;;;-2.69;0.00;100620.34;1687492;84;20987;-87
2023/01/11 18:15:09;;;;;;;15.70;7.47;;;;;;;-2.70;0.00;100595.77;1710776;83;21517;-87
2023/01/11 18:21:46;;;;;;;13.95;7.70;;;;;;;-2.72;0.00;100541.85;1712298;84;21478;-88
2023/01/11 18:24:27;;;;;;;16.90;8.18;;;;;;;-2.74;0.00;100519.16;1708087;84;20960;-87
2023/01/11 18:27:22;;;;;;;16.00;8.63;;;;;;;-2.76;0.00;100464.57;1712249;83;20943;-88
2023/01/11 18:30:04;;;;;;;;;;;;;;;;;;;;;
2023/01/11 18:32:39;;;;;;;17.12;8.80;;;;;;;-2.76;0.00;100475.00;1709979;83;21474;-84
2023/01/11 18:35:19;;;;;;;15.85;8.78;;;;;;;-2.74;0.00;100519.16;1691833;84;21503;-87
2023/01/11 18:37:49;;;;;;;15.18;8.43;;;;;;;-2.79;0.00;100396.64;1712231;83;20922;-88
2023/01/11 18:40:32;;;;;;;16.37;9.63;;;;;;;-2.78;0.00;100437.54;1711844;84;21482;-87
2023/01/11 18:43:00;;;;;;;12.98;9.33;;;;;;;-2.80;0.00;100353.34;1665511;84;21481;-87
2023/01/11 18:45:28;;;;;;;16.32;8.70;;;;;;;-2.80;0.00;100358.55;1665617;84;20996;-87
2023/01/11 18:48:11;;;;;;;13.85;8.38;;;;;;;-2.78;0.00;100437.54;1665304;86;21001;-88
2023/01/11 18:50:54;;;;;;;17.98;9.35;;;;;;;-2.79;0.00;100422.70;1646507;86;20976;-87
2023/01/11 18:53:32;;;;;;;13.10;9.33;;;;;;;-2.79;0.00;100417.50;1665748;84;21056;-87
2023/01/11 18:56:05;;;;;;;14.18;8.90;;;;;;;-2.79;0.00;100417.50;1642648;86;21036;-87
2023/01/11 18:58:37;;;;;;;16.80;9.50;;;;;;;-2.79;0.00;100417.50;1665659;86;20980;-87
2023/01/11 19:01:18;;;;;;;14.47;8.98;;;;;;;-2.76;0.00;100475.00;1640888;86;20953;-89
2023/01/11 19:03:57;;;;;;;15.80;9.10;;;;;;;-2.79;0.00;100412.28;1662314;86;21474;-85
2023/01/11 19:06:32;;;;;;;14.28;9.55;;;;;;;-2.87;0.00;100202.81;1643246;86;21028;-86
2023/01/11 19:09:08;;;;;;;12.82;8.63;;;;;;;-2.86;0.00;100232.42;1665749;86;21012;-85
2023/01/11 19:11:45;;;;;;;14.07;9.03;;;;;;;-2.89;0.00;100169.13;1665748;86;21380;-86